sensor_id;sensor_type;location;lat;lon;timestamp;temperature;humidity
67157;SHT31;54086;50.126;8.710;2022-07-29T00:01:29;21.90;47.43
67157;SHT31;54086;50.126;8.710;2022-07-29T00:03:55;21.85;47.43
67157;SHT31;54086;50.126;8.710;2022-07-29T00:06:20;21.85;47.30
67157;SHT31;54086;50.126;8.710;2022-07-29T00:08:46;21.83;47.32
67157;SHT31;54086;50.126;8.710;2022-07-29T00:11:12;21.93;46.68
67157;SHT31;54086;50.126;8.710;2022-07-29T00:13:37;22.00;46.32
67157;SHT31;54086;50.126;8.710;2022-07-29T00:16:03;21.94;45.86
67157;SHT31;54086;50.126;8.710;2022-07-29T00:18:28;22.00;46.18
67157;SHT31;54086;50.126;8.710;2022-07-29T00:20:54;22.14;45.74
67157;SHT31;54086;50.126;8.710;2022-07-29T00:23:19;22.08;45.62
67157;SHT31;54086;50.126;8.710;2022-07-29T00:25:45;22.10;45.94
67157;SHT31;54086;50.126;8.710;2022-07-29T00:28:10;22.00;46.43
67157;SHT31;54086;50.126;8.710;2022-07-29T00:30:35;21.87;46.84
67157;SHT31;54086;50.126;8.710;2022-07-29T00:33:01;21.75;46.81
67157;SHT31;54086;50.126;8.710;2022-07-29T00:35:26;21.72;47.13
67157;SHT31;54086;50.126;8.710;2022-07-29T00:38:14;21.62;47.13
67157;SHT31;54086;50.126;8.710;2022-07-29T00:40:40;21.65;46.97
67157;SHT31;54086;50.126;8.710;2022-07-29T00:43:06;21.65;46.59
67157;SHT31;54086;50.126;8.710;2022-07-29T00:45:31;21.72;46.67
67157;SHT31;54086;50.126;8.710;2022-07-29T00:47:57;21.80;46.55
67157;SHT31;54086;50.126;8.710;2022-07-29T00:50:23;21.76;46.67
67157;SHT31;54086;50.126;8.710;2022-07-29T00:52:48;21.82;46.52
67157;SHT31;54086;50.126;8.710;2022-07-29T00:55:15;21.89;46.18
67157;SHT31;54086;50.126;8.710;2022-07-29T00:57:42;21.96;45.40
67157;SHT31;54086;50.126;8.710;2022-07-29T01:00:11;22.03;44.94
67157;SHT31;54086;50.126;8.710;2022-07-29T01:02:36;22.08;44.85
67157;SHT31;54086;50.126;8.710;2022-07-29T01:05:03;22.11;44.96
67157;SHT31;54086;50.126;8.710;2022-07-29T01:07:30;22.21;44.69
67157;SHT31;54086;50.126;8.710;2022-07-29T01:09:56;22.18;44.62
67157;SHT31;54086;50.126;8.710;2022-07-29T01:12:25;22.18;44.67
67157;SHT31;54086;50.126;8.710;2022-07-29T01:14:52;22.18;44.43
67157;SHT31;54086;50.126;8.710;2022-07-29T01:17:25;22.31;43.83
67157;SHT31;54086;50.126;8.710;2022-07-29T01:23:04;22.21;44.15
67157;SHT31;54086;50.126;8.710;2022-07-29T01:30:28;22.01;44.69
67157;SHT31;54086;50.126;8.710;2022-07-29T01:32:59;22.06;44.83
67157;SHT31;54086;50.126;8.710;2022-07-29T01:35:36;21.98;45.19
67157;SHT31;54086;50.126;8.710;2022-07-29T01:38:16;21.87;45.35
67157;SHT31;54086;50.126;8.710;2022-07-29T01:40:56;21.87;45.51
67157;SHT31;54086;50.126;8.710;2022-07-29T01:43:38;21.86;45.58
67157;SHT31;54086;50.126;8.710;2022-07-29T01:46:10;21.75;45.91
67157;SHT31;54086;50.126;8.710;2022-07-29T01:48:39;21.77;46.16
67157;SHT31;54086;50.126;8.710;2022-07-29T01:51:14;21.76;46.54
67157;SHT31;54086;50.126;8.710;2022-07-29T01:53:50;21.75;46.62
67157;SHT31;54086;50.126;8.710;2022-07-29T01:56:19;21.72;46.75
67157;SHT31;54086;50.126;8.710;2022-07-29T01:58:47;21.66;46.91
67157;SHT31;54086;50.126;8.710;2022-07-29T02:01:13;21.63;47.35
67157;SHT31;54086;50.126;8.710;2022-07-29T02:03:45;21.53;47.85
67157;SHT31;54086;50.126;8.710;2022-07-29T02:06:12;21.55;48.37
67157;SHT31;54086;50.126;8.710;2022-07-29T02:08:40;21.50;48.58
67157;SHT31;54086;50.126;8.710;2022-07-29T02:11:07;21.37;49.04
67157;SHT31;54086;50.126;8.710;2022-07-29T02:13:34;21.28;49.39
67157;SHT31;54086;50.126;8.710;2022-07-29T02:16:00;21.32;49.44
67157;SHT31;54086;50.126;8.710;2022-07-29T02:18:27;21.27;49.84
67157;SHT31;54086;50.126;8.710;2022-07-29T02:20:56;21.24;50.00
67157;SHT31;54086;50.126;8.710;2022-07-29T02:23:24;21.19;50.56
67157;SHT31;54086;50.126;8.710;2022-07-29T02:25:53;21.08;50.87
67157;SHT31;54086;50.126;8.710;2022-07-29T02:28:20;21.02;51.10
67157;SHT31;54086;50.126;8.710;2022-07-29T02:30:48;21.01;51.57
67157;SHT31;54086;50.126;8.710;2022-07-29T02:33:17;21.00;51.48
67157;SHT31;54086;50.126;8.710;2022-07-29T02:35:44;21.02;51.49
67157;SHT31;54086;50.126;8.710;2022-07-29T02:38:13;20.90;51.91
67157;SHT31;54086;50.126;8.710;2022-07-29T02:41:00;21.00;51.88
67157;SHT31;54086;50.126;8.710;2022-07-29T02:43:29;20.88;52.13
67157;SHT31;54086;50.126;8.710;2022-07-29T02:45:56;20.87;52.57
67157;SHT31;54086;50.126;8.710;2022-07-29T02:48:31;20.88;52.50
67157;SHT31;54086;50.126;8.710;2022-07-29T02:51:06;20.81;52.77
67157;SHT31;54086;50.126;8.710;2022-07-29T02:53:33;20.83;52.91
67157;SHT31;54086;50.126;8.710;2022-07-29T02:56:00;20.80;52.79
67157;SHT31;54086;50.126;8.710;2022-07-29T02:58:49;20.81;52.76
67157;SHT31;54086;50.126;8.710;2022-07-29T03:01:23;20.80;53.08
67157;SHT31;54086;50.126;8.710;2022-07-29T03:03:51;20.74;53.33
67157;SHT31;54086;50.126;8.710;2022-07-29T03:06:17;20.70;53.53
67157;SHT31;54086;50.126;8.710;2022-07-29T03:08:44;20.70;53.77
67157;SHT31;54086;50.126;8.710;2022-07-29T03:11:11;20.63;54.38
67157;SHT31;54086;50.126;8.710;2022-07-29T03:13:37;20.66;54.29
67157;SHT31;54086;50.126;8.710;2022-07-29T03:16:03;20.64;54.53
67157;SHT31;54086;50.126;8.710;2022-07-29T03:18:30;20.57;54.87
67157;SHT31;54086;50.126;8.710;2022-07-29T03:20:56;20.56;55.07
67157;SHT31;54086;50.126;8.710;2022-07-29T03:23:22;20.46;55.59
67157;SHT31;54086;50.126;8.710;2022-07-29T03:25:52;20.29;56.29
67157;SHT31;54086;50.126;8.710;2022-07-29T03:28:18;20.32;56.32
67157;SHT31;54086;50.126;8.710;2022-07-29T03:30:44;20.34;56.38
67157;SHT31;54086;50.126;8.710;2022-07-29T03:33:10;20.32;56.81
67157;SHT31;54086;50.126;8.710;2022-07-29T03:35:35;20.30;57.21
67157;SHT31;54086;50.126;8.710;2022-07-29T03:38:01;20.04;58.05
67157;SHT31;54086;50.126;8.710;2022-07-29T03:40:32;19.75;59.51
67157;SHT31;54086;50.126;8.710;2022-07-29T03:43:00;19.70;60.09
67157;SHT31;54086;50.126;8.710;2022-07-29T03:45:26;19.71;60.14
67157;SHT31;54086;50.126;8.710;2022-07-29T03:47:58;19.53;60.80
67157;SHT31;54086;50.126;8.710;2022-07-29T03:50:24;19.50;61.09
67157;SHT31;54086;50.126;8.710;2022-07-29T03:52:50;19.55;61.10
67157;SHT31;54086;50.126;8.710;2022-07-29T03:55:16;19.40;61.50
67157;SHT31;54086;50.126;8.710;2022-07-29T03:57:43;19.33;61.70
67157;SHT31;54086;50.126;8.710;2022-07-29T04:00:10;19.24;62.01
67157;SHT31;54086;50.126;8.710;2022-07-29T04:02:36;19.21;62.01
67157;SHT31;54086;50.126;8.710;2022-07-29T04:05:02;19.24;61.67
67157;SHT31;54086;50.126;8.710;2022-07-29T04:07:27;19.17;61.76
67157;SHT31;54086;50.126;8.710;2022-07-29T04:09:52;19.20;61.69
67157;SHT31;54086;50.126;8.710;2022-07-29T04:12:18;19.19;61.63
67157;SHT31;54086;50.126;8.710;2022-07-29T04:14:43;19.16;61.83
67157;SHT31;54086;50.126;8.710;2022-07-29T04:17:09;19.17;61.63
67157;SHT31;54086;50.126;8.710;2022-07-29T04:19:34;19.03;61.15
67157;SHT31;54086;50.126;8.710;2022-07-29T04:22:00;19.16;60.94
67157;SHT31;54086;50.126;8.710;2022-07-29T04:24:26;19.13;60.44
67157;SHT31;54086;50.126;8.710;2022-07-29T04:26:51;19.21;60.45
67157;SHT31;54086;50.126;8.710;2022-07-29T04:29:17;19.23;60.07
67157;SHT31;54086;50.126;8.710;2022-07-29T04:31:42;19.19;60.03
67157;SHT31;54086;50.126;8.710;2022-07-29T04:34:08;19.19;59.94
67157;SHT31;54086;50.126;8.710;2022-07-29T04:36:34;19.20;59.16
67157;SHT31;54086;50.126;8.710;2022-07-29T04:38:59;19.16;58.87
67157;SHT31;54086;50.126;8.710;2022-07-29T04:41:26;19.26;58.59
67157;SHT31;54086;50.126;8.710;2022-07-29T04:43:52;19.14;58.59
67157;SHT31;54086;50.126;8.710;2022-07-29T04:46:17;19.03;58.67
67157;SHT31;54086;50.126;8.710;2022-07-29T04:48:45;19.14;58.11
67157;SHT31;54086;50.126;8.710;2022-07-29T04:51:10;19.13;58.12
67157;SHT31;54086;50.126;8.710;2022-07-29T04:53:36;19.13;57.50
67157;SHT31;54086;50.126;8.710;2022-07-29T04:56:02;19.16;57.45
67157;SHT31;54086;50.126;8.710;2022-07-29T04:58:27;19.21;56.67
67157;SHT31;54086;50.126;8.710;2022-07-29T05:00:52;19.20;56.94
67157;SHT31;54086;50.126;8.710;2022-07-29T05:03:18;19.23;56.65
67157;SHT31;54086;50.126;8.710;2022-07-29T05:05:43;19.41;56.57
67157;SHT31;54086;50.126;8.710;2022-07-29T05:08:09;19.38;56.23
67157;SHT31;54086;50.126;8.710;2022-07-29T05:10:34;19.53;55.91
67157;SHT31;54086;50.126;8.710;2022-07-29T05:13:06;19.62;55.47
67157;SHT31;54086;50.126;8.710;2022-07-29T05:15:33;19.64;54.58
67157;SHT31;54086;50.126;8.710;2022-07-29T05:17:59;19.78;54.29
67157;SHT31;54086;50.126;8.710;2022-07-29T05:20:25;19.88;53.81
67157;SHT31;54086;50.126;8.710;2022-07-29T05:22:57;19.89;53.77
67157;SHT31;54086;50.126;8.710;2022-07-29T05:25:23;19.98;54.19
67157;SHT31;54086;50.126;8.710;2022-07-29T05:27:49;20.09;53.75
67157;SHT31;54086;50.126;8.710;2022-07-29T05:30:15;20.15;54.09
67157;SHT31;54086;50.126;8.710;2022-07-29T05:32:40;20.37;53.94
67157;SHT31;54086;50.126;8.710;2022-07-29T05:35:06;20.34;54.28
67157;SHT31;54086;50.126;8.710;2022-07-29T05:37:31;20.37;54.22
67157;SHT31;54086;50.126;8.710;2022-07-29T05:39:57;20.43;54.11
67157;SHT31;54086;50.126;8.710;2022-07-29T05:42:23;20.43;54.00
67157;SHT31;54086;50.126;8.710;2022-07-29T05:44:48;20.39;54.11
67157;SHT31;54086;50.126;8.710;2022-07-29T05:47:13;20.44;54.29
67157;SHT31;54086;50.126;8.710;2022-07-29T05:49:39;20.57;54.20
67157;SHT31;54086;50.126;8.710;2022-07-29T05:52:04;20.57;54.12
67157;SHT31;54086;50.126;8.710;2022-07-29T05:54:30;20.70;53.84
67157;SHT31;54086;50.126;8.710;2022-07-29T05:56:55;20.71;53.90
67157;SHT31;54086;50.126;8.710;2022-07-29T05:59:21;20.63;53.95
67157;SHT31;54086;50.126;8.710;2022-07-29T06:01:46;20.77;53.96
67157;SHT31;54086;50.126;8.710;2022-07-29T06:04:11;20.67;54.20
67157;SHT31;54086;50.126;8.710;2022-07-29T06:06:37;20.77;53.98
67157;SHT31;54086;50.126;8.710;2022-07-29T06:09:03;20.87;53.64
67157;SHT31;54086;50.126;8.710;2022-07-29T06:11:28;21.04;53.59
67157;SHT31;54086;50.126;8.710;2022-07-29T06:13:54;21.02;53.65
67157;SHT31;54086;50.126;8.710;2022-07-29T06:16:19;21.05;53.63
67157;SHT31;54086;50.126;8.710;2022-07-29T06:18:44;21.05;53.42
67157;SHT31;54086;50.126;8.710;2022-07-29T06:21:10;21.08;53.68
67157;SHT31;54086;50.126;8.710;2022-07-29T06:23:36;21.07;53.96
67157;SHT31;54086;50.126;8.710;2022-07-29T06:26:02;21.12;53.87
67157;SHT31;54086;50.126;8.710;2022-07-29T06:28:28;21.14;53.24
67157;SHT31;54086;50.126;8.710;2022-07-29T06:30:53;21.18;53.26
67157;SHT31;54086;50.126;8.710;2022-07-29T06:33:19;21.34;52.73
67157;SHT31;54086;50.126;8.710;2022-07-29T06:35:44;21.35;53.04
67157;SHT31;54086;50.126;8.710;2022-07-29T06:38:13;21.37;53.02
67157;SHT31;54086;50.126;8.710;2022-07-29T06:40:45;21.52;52.91
67157;SHT31;54086;50.126;8.710;2022-07-29T06:43:27;21.46;53.27
67157;SHT31;54086;50.126;8.710;2022-07-29T06:45:54;21.45;53.55
67157;SHT31;54086;50.126;8.710;2022-07-29T06:48:19;21.50;53.36
67157;SHT31;54086;50.126;8.710;2022-07-29T06:50:44;21.63;53.31
67157;SHT31;54086;50.126;8.710;2022-07-29T06:53:10;21.65;53.45
67157;SHT31;54086;50.126;8.710;2022-07-29T06:55:35;21.86;53.17
67157;SHT31;54086;50.126;8.710;2022-07-29T06:58:02;21.75;53.02
67157;SHT31;54086;50.126;8.710;2022-07-29T07:00:27;21.85;52.52
67157;SHT31;54086;50.126;8.710;2022-07-29T07:02:53;21.94;53.02
67157;SHT31;54086;50.126;8.710;2022-07-29T07:05:18;21.76;53.10
67157;SHT31;54086;50.126;8.710;2022-07-29T07:07:44;21.80;52.50
67157;SHT31;54086;50.126;8.710;2022-07-29T07:10:09;22.03;52.38
67157;SHT31;54086;50.126;8.710;2022-07-29T07:12:34;22.08;52.05
67157;SHT31;54086;50.126;8.710;2022-07-29T07:15:00;22.22;52.36
67157;SHT31;54086;50.126;8.710;2022-07-29T07:17:25;22.41;51.34
67157;SHT31;54086;50.126;8.710;2022-07-29T07:19:51;22.57;50.81
67157;SHT31;54086;50.126;8.710;2022-07-29T07:22:16;22.54;51.32
67157;SHT31;54086;50.126;8.710;2022-07-29T07:24:42;22.68;50.82
67157;SHT31;54086;50.126;8.710;2022-07-29T07:27:07;22.75;49.92
67157;SHT31;54086;50.126;8.710;2022-07-29T07:29:32;22.76;50.44
67157;SHT31;54086;50.126;8.710;2022-07-29T07:31:58;22.78;50.72
67157;SHT31;54086;50.126;8.710;2022-07-29T07:34:23;22.76;49.10
67157;SHT31;54086;50.126;8.710;2022-07-29T07:36:49;22.91;48.19
67157;SHT31;54086;50.126;8.710;2022-07-29T07:39:14;22.82;48.17
67157;SHT31;54086;50.126;8.710;2022-07-29T07:41:39;22.91;48.34
67157;SHT31;54086;50.126;8.710;2022-07-29T07:44:05;23.02;48.63
67157;SHT31;54086;50.126;8.710;2022-07-29T07:46:31;23.03;48.25
67157;SHT31;54086;50.126;8.710;2022-07-29T07:48:56;23.19;48.33
67157;SHT31;54086;50.126;8.710;2022-07-29T07:51:22;23.15;48.36
67157;SHT31;54086;50.126;8.710;2022-07-29T07:53:47;23.13;48.50
67157;SHT31;54086;50.126;8.710;2022-07-29T07:56:15;23.27;48.53
67157;SHT31;54086;50.126;8.710;2022-07-29T07:58:41;23.23;48.70
67157;SHT31;54086;50.126;8.710;2022-07-29T08:01:07;23.28;47.84
67157;SHT31;54086;50.126;8.710;2022-07-29T08:03:33;23.42;48.03
67157;SHT31;54086;50.126;8.710;2022-07-29T08:05:58;23.53;47.90
67157;SHT31;54086;50.126;8.710;2022-07-29T08:08:25;23.34;48.39
67157;SHT31;54086;50.126;8.710;2022-07-29T08:10:50;23.46;47.68
67157;SHT31;54086;50.126;8.710;2022-07-29T08:13:22;23.40;48.98
67157;SHT31;54086;50.126;8.710;2022-07-29T08:15:47;23.58;48.75
67157;SHT31;54086;50.126;8.710;2022-07-29T08:18:22;23.67;47.94
67157;SHT31;54086;50.126;8.710;2022-07-29T08:20:48;23.89;48.03
67157;SHT31;54086;50.126;8.710;2022-07-29T08:23:13;24.02;47.49
67157;SHT31;54086;50.126;8.710;2022-07-29T08:25:38;24.11;47.31
67157;SHT31;54086;50.126;8.710;2022-07-29T08:28:05;24.08;47.60
67157;SHT31;54086;50.126;8.710;2022-07-29T08:30:30;24.24;47.20
67157;SHT31;54086;50.126;8.710;2022-07-29T08:32:57;23.82;48.63
67157;SHT31;54086;50.126;8.710;2022-07-29T08:35:23;24.51;47.23
67157;SHT31;54086;50.126;8.710;2022-07-29T08:37:49;25.00;46.30
67157;SHT31;54086;50.126;8.710;2022-07-29T08:40:15;25.48;45.87
67157;SHT31;54086;50.126;8.710;2022-07-29T08:42:41;26.31;44.32
67157;SHT31;54086;50.126;8.710;2022-07-29T08:45:07;26.39;43.73
67157;SHT31;54086;50.126;8.710;2022-07-29T08:47:32;26.75;43.21
67157;SHT31;54086;50.126;8.710;2022-07-29T08:49:58;26.58;41.85
67157;SHT31;54086;50.126;8.710;2022-07-29T08:52:25;26.16;42.51
67157;SHT31;54086;50.126;8.710;2022-07-29T08:54:52;26.02;42.69
67157;SHT31;54086;50.126;8.710;2022-07-29T08:57:19;26.33;42.38
67157;SHT31;54086;50.126;8.710;2022-07-29T08:59:46;26.07;43.17
67157;SHT31;54086;50.126;8.710;2022-07-29T09:02:19;26.19;43.11
67157;SHT31;54086;50.126;8.710;2022-07-29T09:04:45;26.13;43.67
67157;SHT31;54086;50.126;8.710;2022-07-29T09:07:15;26.40;42.94
67157;SHT31;54086;50.126;8.710;2022-07-29T09:09:40;26.72;42.82
67157;SHT31;54086;50.126;8.710;2022-07-29T09:12:06;26.58;42.94
67157;SHT31;54086;50.126;8.710;2022-07-29T09:14:33;26.55;43.37
67157;SHT31;54086;50.126;8.710;2022-07-29T09:16:59;26.55;43.03
67157;SHT31;54086;50.126;8.710;2022-07-29T09:19:31;26.64;43.35
67157;SHT31;54086;50.126;8.710;2022-07-29T09:22:05;26.98;43.05
67157;SHT31;54086;50.126;8.710;2022-07-29T09:27:00;27.29;43.67
67157;SHT31;54086;50.126;8.710;2022-07-29T09:29:26;27.71;41.60
67157;SHT31;54086;50.126;8.710;2022-07-29T09:31:54;27.46;42.39
67157;SHT31;54086;50.126;8.710;2022-07-29T09:34:28;27.38;43.02
67157;SHT31;54086;50.126;8.710;2022-07-29T09:36:55;27.45;42.77
67157;SHT31;54086;50.126;8.710;2022-07-29T09:39:32;27.93;42.50
67157;SHT31;54086;50.126;8.710;2022-07-29T09:42:01;27.57;42.66
67157;SHT31;54086;50.126;8.710;2022-07-29T09:44:40;27.06;43.73
67157;SHT31;54086;50.126;8.710;2022-07-29T09:47:06;27.66;42.87
67157;SHT31;54086;50.126;8.710;2022-07-29T09:49:32;28.48;42.39
67157;SHT31;54086;50.126;8.710;2022-07-29T09:52:05;28.87;41.02
67157;SHT31;54086;50.126;8.710;2022-07-29T09:54:31;27.73;42.13
67157;SHT31;54086;50.126;8.710;2022-07-29T09:57:03;27.64;42.34
67157;SHT31;54086;50.126;8.710;2022-07-29T09:59:28;27.28;43.48
67157;SHT31;54086;50.126;8.710;2022-07-29T10:01:54;27.84;42.69
67157;SHT31;54086;50.126;8.710;2022-07-29T10:04:19;27.49;43.31
67157;SHT31;54086;50.126;8.710;2022-07-29T10:06:57;28.22;42.28
67157;SHT31;54086;50.126;8.710;2022-07-29T10:09:23;29.09;41.17
67157;SHT31;54086;50.126;8.710;2022-07-29T10:12:25;28.51;41.35
67157;SHT31;54086;50.126;8.710;2022-07-29T10:14:50;28.28;41.75
67157;SHT31;54086;50.126;8.710;2022-07-29T10:17:17;28.02;43.31
67157;SHT31;54086;50.126;8.710;2022-07-29T10:19:43;28.70;41.54
67157;SHT31;54086;50.126;8.710;2022-07-29T10:22:10;28.37;41.70
67157;SHT31;54086;50.126;8.710;2022-07-29T10:24:37;27.97;41.98
67157;SHT31;54086;50.126;8.710;2022-07-29T10:27:06;27.91;42.54
67157;SHT31;54086;50.126;8.710;2022-07-29T10:29:32;28.73;42.07
67157;SHT31;54086;50.126;8.710;2022-07-29T10:43:24;28.97;41.75
67157;SHT31;54086;50.126;8.710;2022-07-29T10:45:57;29.04;41.28
67157;SHT31;54086;50.126;8.710;2022-07-29T10:48:23;29.07;41.44
67157;SHT31;54086;50.126;8.710;2022-07-29T10:51:03;29.38;41.34
67157;SHT31;54086;50.126;8.710;2022-07-29T10:53:49;30.40;39.07
67157;SHT31;54086;50.126;8.710;2022-07-29T11:01:50;31.28;37.66
67157;SHT31;54086;50.126;8.710;2022-07-29T11:07:11;30.02;38.54
67157;SHT31;54086;50.126;8.710;2022-07-29T11:09:38;30.87;37.79
67157;SHT31;54086;50.126;8.710;2022-07-29T11:12:45;31.02;37.15
67157;SHT31;54086;50.126;8.710;2022-07-29T11:14:58;30.33;38.95
67157;SHT31;54086;50.126;8.710;2022-07-29T11:17:25;30.10;38.88
67157;SHT31;54086;50.126;8.710;2022-07-29T11:19:51;30.32;38.73
67157;SHT31;54086;50.126;8.710;2022-07-29T11:22:33;29.89;39.09
67157;SHT31;54086;50.126;8.710;2022-07-29T11:25:31;29.95;38.95
67157;SHT31;54086;50.126;8.710;2022-07-29T11:28:13;31.08;37.55
67157;SHT31;54086;50.126;8.710;2022-07-29T11:30:51;31.31;37.07
67157;SHT31;54086;50.126;8.710;2022-07-29T11:33:29;31.56;36.81
67157;SHT31;54086;50.126;8.710;2022-07-29T11:36:13;31.42;36.75
67157;SHT31;54086;50.126;8.710;2022-07-29T11:38:39;31.74;36.60
67157;SHT31;54086;50.126;8.710;2022-07-29T11:43:47;31.22;36.80
67157;SHT31;54086;50.126;8.710;2022-07-29T11:46:13;31.04;37.21
67157;SHT31;54086;50.126;8.710;2022-07-29T11:48:42;29.93;38.62
67157;SHT31;54086;50.126;8.710;2022-07-29T11:51:11;30.25;38.16
67157;SHT31;54086;50.126;8.710;2022-07-29T11:53:38;30.29;38.10
67157;SHT31;54086;50.126;8.710;2022-07-29T11:56:10;30.43;38.00
67157;SHT31;54086;50.126;8.710;2022-07-29T11:58:38;30.46;37.95
67157;SHT31;54086;50.126;8.710;2022-07-29T12:01:03;30.78;37.57
67157;SHT31;54086;50.126;8.710;2022-07-29T12:03:30;31.16;37.68
67157;SHT31;54086;50.126;8.710;2022-07-29T12:05:55;31.52;36.56
67157;SHT31;54086;50.126;8.710;2022-07-29T12:08:22;31.21;37.13
67157;SHT31;54086;50.126;8.710;2022-07-29T12:10:49;30.61;37.89
67157;SHT31;54086;50.126;8.710;2022-07-29T12:13:20;30.57;37.79
67157;SHT31;54086;50.126;8.710;2022-07-29T12:15:56;30.71;37.81
67157;SHT31;54086;50.126;8.710;2022-07-29T12:18:25;30.99;37.54
67157;SHT31;54086;50.126;8.710;2022-07-29T12:21:01;31.32;36.70
67157;SHT31;54086;50.126;8.710;2022-07-29T12:23:29;31.11;36.84
67157;SHT31;54086;50.126;8.710;2022-07-29T12:25:55;31.16;37.42
67157;SHT31;54086;50.126;8.710;2022-07-29T12:28:20;31.62;36.37
67157;SHT31;54086;50.126;8.710;2022-07-29T12:30:48;31.10;36.91
67157;SHT31;54086;50.126;8.710;2022-07-29T12:33:25;31.53;36.43
67157;SHT31;54086;50.126;8.710;2022-07-29T12:36:00;31.67;36.04
67157;SHT31;54086;50.126;8.710;2022-07-29T12:38:26;31.80;36.22
67157;SHT31;54086;50.126;8.710;2022-07-29T12:40:53;31.84;35.95
67157;SHT31;54086;50.126;8.710;2022-07-29T12:43:23;30.83;37.01
67157;SHT31;54086;50.126;8.710;2022-07-29T12:45:51;32.33;37.23
67157;SHT31;54086;50.126;8.710;2022-07-29T12:48:17;32.71;35.33
67157;SHT31;54086;50.126;8.710;2022-07-29T12:50:57;32.52;34.78
67157;SHT31;54086;50.126;8.710;2022-07-29T12:53:23;31.98;35.57
67157;SHT31;54086;50.126;8.710;2022-07-29T12:55:50;32.45;35.05
67157;SHT31;54086;50.126;8.710;2022-07-29T12:58:45;32.17;35.28
67157;SHT31;54086;50.126;8.710;2022-07-29T13:01:13;31.87;35.58
67157;SHT31;54086;50.126;8.710;2022-07-29T13:03:54;31.58;35.94
67157;SHT31;54086;50.126;8.710;2022-07-29T13:06:39;31.11;37.54
67157;SHT31;54086;50.126;8.710;2022-07-29T13:09:10;30.81;36.99
67157;SHT31;54086;50.126;8.710;2022-07-29T13:11:48;31.01;36.94
67157;SHT31;54086;50.126;8.710;2022-07-29T13:14:30;31.32;36.31
67157;SHT31;54086;50.126;8.710;2022-07-29T13:17:05;32.38;35.33
67157;SHT31;54086;50.126;8.710;2022-07-29T13:19:50;33.59;34.10
67157;SHT31;54086;50.126;8.710;2022-07-29T13:22:18;34.21;35.39
67157;SHT31;54086;50.126;8.710;2022-07-29T13:27:21;33.13;34.21
67157;SHT31;54086;50.126;8.710;2022-07-29T13:29:47;31.82;35.53
67157;SHT31;54086;50.126;8.710;2022-07-29T13:32:14;32.50;35.98
67157;SHT31;54086;50.126;8.710;2022-07-29T13:34:40;31.14;36.84
67157;SHT31;54086;50.126;8.710;2022-07-29T13:37:05;31.31;36.71
67157;SHT31;54086;50.126;8.710;2022-07-29T13:39:31;31.28;37.17
67157;SHT31;54086;50.126;8.710;2022-07-29T13:41:56;31.16;36.79
67157;SHT31;54086;50.126;8.710;2022-07-29T13:44:22;31.35;37.52
67157;SHT31;54086;50.126;8.710;2022-07-29T13:46:47;30.81;37.35
67157;SHT31;54086;50.126;8.710;2022-07-29T13:49:12;30.78;37.58
67157;SHT31;54086;50.126;8.710;2022-07-29T13:51:38;31.07;37.34
67157;SHT31;54086;50.126;8.710;2022-07-29T13:54:04;30.77;37.29
67157;SHT31;54086;50.126;8.710;2022-07-29T13:56:29;30.27;37.70
67157;SHT31;54086;50.126;8.710;2022-07-29T13:58:55;30.74;37.90
67157;SHT31;54086;50.126;8.710;2022-07-29T14:01:21;30.39;37.96
67157;SHT31;54086;50.126;8.710;2022-07-29T14:03:46;30.04;38.10
67157;SHT31;54086;50.126;8.710;2022-07-29T14:06:11;29.55;38.92
67157;SHT31;54086;50.126;8.710;2022-07-29T14:08:37;29.65;38.59
67157;SHT31;54086;50.126;8.710;2022-07-29T14:11:03;29.58;39.07
67157;SHT31;54086;50.126;8.710;2022-07-29T14:13:29;29.71;38.82
67157;SHT31;54086;50.126;8.710;2022-07-29T14:15:54;29.47;39.25
67157;SHT31;54086;50.126;8.710;2022-07-29T14:18:20;29.59;38.83
67157;SHT31;54086;50.126;8.710;2022-07-29T14:20:45;29.75;38.53
67157;SHT31;54086;50.126;8.710;2022-07-29T14:23:10;29.90;39.07
67157;SHT31;54086;50.126;8.710;2022-07-29T14:25:36;29.88;38.69
67157;SHT31;54086;50.126;8.710;2022-07-29T14:28:01;29.77;38.67
67157;SHT31;54086;50.126;8.710;2022-07-29T14:30:27;29.67;38.76
67157;SHT31;54086;50.126;8.710;2022-07-29T14:32:52;29.69;38.84
67157;SHT31;54086;50.126;8.710;2022-07-29T14:35:17;29.67;38.86
67157;SHT31;54086;50.126;8.710;2022-07-29T14:37:43;29.69;39.53
67157;SHT31;54086;50.126;8.710;2022-07-29T14:40:09;29.24;43.36
67157;SHT31;54086;50.126;8.710;2022-07-29T14:42:34;29.00;44.62
67157;SHT31;54086;50.126;8.710;2022-07-29T14:45:01;28.59;46.26
67157;SHT31;54086;50.126;8.710;2022-07-29T14:47:26;28.31;46.73
67157;SHT31;54086;50.126;8.710;2022-07-29T14:49:52;28.02;47.09
67157;SHT31;54086;50.126;8.710;2022-07-29T14:52:17;28.19;47.61
67157;SHT31;54086;50.126;8.710;2022-07-29T14:54:43;28.00;49.88
67157;SHT31;54086;50.126;8.710;2022-07-29T14:57:08;27.91;51.13
67157;SHT31;54086;50.126;8.710;2022-07-29T14:59:33;27.84;54.53
67157;SHT31;54086;50.126;8.710;2022-07-29T15:01:59;27.66;56.02
67157;SHT31;54086;50.126;8.710;2022-07-29T15:04:24;27.67;56.50
67157;SHT31;54086;50.126;8.710;2022-07-29T15:06:50;27.69;56.78
67157;SHT31;54086;50.126;8.710;2022-07-29T15:09:17;27.66;54.53
67157;SHT31;54086;50.126;8.710;2022-07-29T15:11:43;27.46;53.86
67157;SHT31;54086;50.126;8.710;2022-07-29T15:14:08;27.36;57.51
67157;SHT31;54086;50.126;8.710;2022-07-29T15:16:37;27.40;56.05
67157;SHT31;54086;50.126;8.710;2022-07-29T15:19:04;26.95;55.83
67157;SHT31;54086;50.126;8.710;2022-07-29T15:21:29;27.18;55.60
67157;SHT31;54086;50.126;8.710;2022-07-29T15:23:55;27.51;54.73
67157;SHT31;54086;50.126;8.710;2022-07-29T15:26:21;27.54;53.03
67157;SHT31;54086;50.126;8.710;2022-07-29T15:28:46;27.63;51.94
67157;SHT31;54086;50.126;8.710;2022-07-29T15:31:12;27.47;52.11
67157;SHT31;54086;50.126;8.710;2022-07-29T15:33:37;27.49;51.41
67157;SHT31;54086;50.126;8.710;2022-07-29T15:36:03;27.59;49.44
67157;SHT31;54086;50.126;8.710;2022-07-29T15:38:30;27.81;48.06
67157;SHT31;54086;50.126;8.710;2022-07-29T15:40:55;27.98;45.91
67157;SHT31;54086;50.126;8.710;2022-07-29T15:43:21;28.08;46.20
67157;SHT31;54086;50.126;8.710;2022-07-29T15:45:47;28.04;46.29
67157;SHT31;54086;50.126;8.710;2022-07-29T15:48:31;27.97;46.08
67157;SHT31;54086;50.126;8.710;2022-07-29T15:50:58;28.01;46.30
67157;SHT31;54086;50.126;8.710;2022-07-29T15:53:23;28.08;45.96
67157;SHT31;54086;50.126;8.710;2022-07-29T15:55:50;27.94;45.76
67157;SHT31;54086;50.126;8.710;2022-07-29T15:58:15;28.17;45.54
67157;SHT31;54086;50.126;8.710;2022-07-29T16:00:41;28.17;45.59
67157;SHT31;54086;50.126;8.710;2022-07-29T16:03:06;28.19;44.77
67157;SHT31;54086;50.126;8.710;2022-07-29T16:05:32;28.15;44.32
67157;SHT31;54086;50.126;8.710;2022-07-29T16:07:57;28.14;42.82
67157;SHT31;54086;50.126;8.710;2022-07-29T16:10:24;27.98;43.68